createdAt,value
2022-09-12T00:00:47.187Z,99.90
2022-09-12T00:03:16.987Z,99.90
2022-09-12T00:05:48.881Z,99.90
2022-09-12T00:08:26.126Z,99.90
2022-09-12T00:10:57.137Z,99.90
2022-09-12T00:13:28.246Z,99.90
2022-09-12T00:15:56.177Z,99.90
2022-09-12T00:18:40.354Z,99.90
2022-09-12T00:21:08.428Z,99.90
2022-09-12T00:23:36.444Z,99.90
2022-09-12T00:26:08.505Z,99.90
2022-09-12T00:28:41.683Z,99.90
2022-09-12T00:31:12.482Z,99.90
2022-09-12T00:33:42.317Z,99.90
2022-09-12T00:36:22.152Z,99.90
2022-09-12T00:38:51.946Z,99.90
2022-09-12T00:41:22.065Z,99.90
2022-09-12T00:44:32.335Z,99.90
2022-09-12T00:47:23.369Z,99.90
2022-09-12T00:49:56.378Z,99.90
2022-09-12T00:52:35.317Z,99.90
2022-09-12T00:55:14.056Z,99.90
2022-09-12T00:57:45.912Z,99.90
2022-09-12T01:00:16.953Z,99.90
2022-09-12T01:02:55.199Z,99.90
2022-09-12T01:05:25.975Z,99.90
2022-09-12T01:07:54.153Z,99.90
2022-09-12T01:10:34.340Z,99.90
2022-09-12T01:13:04.635Z,99.90
2022-09-12T01:15:32.687Z,99.90
2022-09-12T01:18:18.011Z,99.90
2022-09-12T01:21:14.651Z,99.90
2022-09-12T01:24:15.449Z,99.90
2022-09-12T01:27:13.480Z,99.90
2022-09-12T01:30:25.551Z,99.90
2022-09-12T01:33:26.424Z,99.90
2022-09-12T01:36:12.591Z,99.90
2022-09-12T01:38:46.826Z,99.90
2022-09-12T01:41:32.309Z,99.90
2022-09-12T01:44:09.776Z,99.90
2022-09-12T01:46:49.324Z,99.90
2022-09-12T01:49:23.933Z,99.90
2022-09-12T01:51:58.470Z,99.90
2022-09-12T01:54:44.840Z,99.90
2022-09-12T01:57:21.840Z,99.90
2022-09-12T01:59:53.973Z,99.90
2022-09-12T02:02:30.695Z,99.90
2022-09-12T02:05:04.768Z,99.90
2022-09-12T02:07:37.769Z,99.90
2022-09-12T02:10:11.220Z,99.90
2022-09-12T02:12:47.434Z,99.90
2022-09-12T02:15:18.995Z,99.90
2022-09-12T02:17:50.596Z,99.90
2022-09-12T02:20:46.466Z,99.90
2022-09-12T02:23:23.285Z,99.90
2022-09-12T02:25:56.131Z,99.90
2022-09-12T02:28:31.238Z,99.90
2022-09-12T02:31:42.046Z,99.90
2022-09-12T02:34:28.965Z,99.90
2022-09-12T02:37:20.091Z,99.90
2022-09-12T02:39:48.362Z,99.90
2022-09-12T02:42:16.417Z,99.90
2022-09-12T02:44:44.535Z,99.90
2022-09-12T02:47:25.211Z,99.90
2022-09-12T02:49:57.897Z,99.90
2022-09-12T02:52:28.665Z,99.90
2022-09-12T02:54:59.795Z,99.90
2022-09-12T02:57:36.779Z,99.90
2022-09-12T03:00:09.766Z,99.90
2022-09-12T03:02:51.834Z,99.90
2022-09-12T03:05:47.272Z,99.90
2022-09-12T03:08:48.412Z,99.90
2022-09-12T03:11:50.686Z,99.90
2022-09-12T03:14:31.170Z,99.90
2022-09-12T03:17:17.968Z,99.90
2022-09-12T03:19:58.835Z,99.90
2022-09-12T03:22:34.822Z,99.90
2022-09-12T03:25:11.254Z,99.90
2022-09-12T03:27:45.067Z,99.90
2022-09-12T03:30:13.697Z,99.90
2022-09-12T03:32:43.303Z,99.90
2022-09-12T03:35:12.538Z,99.90
2022-09-12T03:37:54.037Z,99.90
2022-09-12T03:40:23.555Z,99.90
2022-09-12T03:42:51.583Z,99.90
2022-09-12T03:45:19.571Z,99.90
2022-09-12T03:50:40.357Z,99.90
2022-09-12T03:53:08.442Z,99.90
2022-09-12T03:55:43.979Z,99.90
2022-09-12T03:58:11.990Z,99.90
2022-09-12T04:00:40.991Z,99.90
2022-09-12T04:03:09.727Z,99.90
2022-09-12T04:05:43.710Z,99.90
2022-09-12T04:08:11.747Z,99.90
2022-09-12T04:10:44.242Z,99.90
2022-09-12T04:13:24.272Z,99.90
2022-09-12T04:15:58.242Z,99.90
2022-09-12T04:18:26.216Z,99.90
2022-09-12T04:21:05.766Z,99.90
2022-09-12T04:23:33.791Z,99.90
2022-09-12T04:26:07.582Z,99.90
2022-09-12T04:28:37.065Z,99.90
2022-09-12T04:31:17.729Z,99.90
2022-09-12T04:33:46.734Z,99.90
2022-09-12T04:36:16.922Z,99.90
2022-09-12T04:38:48.942Z,99.90
2022-09-12T04:41:20.488Z,99.90
2022-09-12T04:43:52.525Z,99.90
2022-09-12T04:46:21.229Z,99.90
2022-09-12T04:48:57.125Z,99.90
2022-09-12T04:51:27.708Z,99.90
2022-09-12T04:53:57.692Z,99.90
2022-09-12T04:56:42.627Z,99.90
2022-09-12T04:59:12.581Z,99.90
2022-09-12T05:01:41.191Z,99.90
2022-09-12T05:04:17.949Z,99.90
2022-09-12T05:06:49.129Z,99.90
2022-09-12T05:09:19.914Z,99.90
2022-09-12T05:12:05.684Z,99.90
2022-09-12T05:14:35.063Z,99.90
2022-09-12T05:17:03.894Z,99.90
2022-09-12T05:19:35.218Z,99.90
2022-09-12T05:22:09.792Z,99.90
2022-09-12T05:24:39.419Z,99.90
2022-09-12T05:27:09.039Z,99.90
2022-09-12T05:29:39.390Z,99.90
2022-09-12T05:32:20.950Z,99.90
2022-09-12T05:34:49.715Z,99.90
2022-09-12T05:37:20.633Z,99.90
2022-09-12T05:40:08.658Z,99.90
2022-09-12T05:42:38.026Z,99.90
2022-09-12T05:45:07.001Z,99.90
2022-09-12T05:47:38.035Z,99.90
2022-09-12T05:50:10.993Z,99.90
2022-09-12T05:52:39.116Z,99.90
2022-09-12T05:55:09.679Z,99.90
2022-09-12T05:57:54.203Z,99.90
2022-09-12T06:00:22.173Z,99.90
2022-09-12T06:02:53.685Z,99.90
2022-09-12T06:05:21.910Z,99.90
2022-09-12T06:07:59.062Z,99.90
2022-09-12T06:10:30.123Z,99.90
2022-09-12T06:13:03.980Z,99.90
2022-09-12T06:15:31.965Z,99.90
2022-09-12T06:18:03.302Z,99.90
2022-09-12T06:20:37.047Z,99.90
2022-09-12T06:23:11.089Z,99.90
2022-09-12T06:25:47.741Z,99.90
2022-09-12T06:28:17.262Z,99.90
2022-09-12T06:30:45.311Z,99.90
2022-09-12T06:33:13.483Z,99.90
2022-09-12T06:35:44.594Z,99.90
2022-09-12T06:38:12.590Z,99.90
2022-09-12T06:41:00.438Z,99.90
2022-09-12T06:43:30.132Z,99.90
2022-09-12T06:45:58.424Z,99.90
2022-09-12T06:48:40.984Z,99.90
2022-09-12T06:51:13.372Z,99.90
2022-09-12T06:53:42.271Z,99.90
2022-09-12T06:56:13.283Z,99.90
2022-09-12T06:58:49.967Z,99.90
2022-09-12T07:01:20.789Z,99.90
2022-09-12T07:03:50.736Z,99.90
2022-09-12T07:06:31.895Z,99.90
2022-09-12T07:09:01.014Z,99.90
2022-09-12T07:11:31.775Z,99.90
2022-09-12T07:14:03.269Z,99.90
2022-09-12T07:16:31.602Z,99.90
2022-09-12T07:19:01.690Z,99.90
2022-09-12T07:21:30.373Z,99.90
2022-09-12T07:23:59.121Z,99.90
2022-09-12T07:26:28.930Z,99.90
2022-09-12T07:29:18.579Z,99.90
2022-09-12T07:32:01.813Z,99.90
2022-09-12T07:34:29.775Z,99.90
2022-09-12T07:36:57.885Z,99.90
2022-09-12T07:39:26.700Z,99.90
2022-09-12T07:42:05.028Z,99.90
2022-09-12T07:44:35.382Z,99.90
2022-09-12T07:47:05.424Z,99.90
2022-09-12T07:49:36.653Z,99.90
2022-09-12T07:52:07.417Z,99.90
2022-09-12T07:54:38.572Z,99.90
2022-09-12T07:57:10.678Z,99.90
2022-09-12T07:59:53.008Z,99.90
2022-09-12T08:02:22.765Z,99.90
2022-09-12T08:04:51.427Z,99.90
2022-09-12T08:07:28.720Z,99.90
2022-09-12T08:09:57.589Z,99.90
2022-09-12T08:12:25.981Z,99.90
2022-09-12T08:14:56.710Z,99.90
2022-09-12T08:17:26.044Z,99.90
2022-09-12T08:19:56.875Z,99.90
2022-09-12T08:22:32.249Z,99.90
2022-09-12T08:25:02.711Z,99.90
2022-09-12T08:27:34.075Z,99.90
2022-09-12T08:30:06.319Z,99.90
2022-09-12T08:32:40.713Z,99.90
2022-09-12T08:35:12.000Z,99.90
2022-09-12T08:37:42.973Z,99.90
2022-09-12T08:40:19.123Z,99.90
2022-09-12T08:42:57.781Z,99.90
2022-09-12T08:45:44.100Z,99.90
2022-09-12T08:48:16.341Z,99.90
2022-09-12T08:50:49.337Z,99.90
2022-09-12T08:53:22.330Z,99.90
2022-09-12T08:55:58.610Z,99.90
2022-09-12T08:58:28.514Z,99.90
2022-09-12T09:01:03.335Z,99.90
2022-09-12T09:04:01.162Z,99.90
2022-09-12T09:06:58.336Z,99.90
2022-09-12T09:09:42.969Z,99.90
2022-09-12T09:12:28.184Z,99.90
2022-09-12T09:15:31.130Z,99.90
2022-09-12T09:18:06.516Z,99.90
2022-09-12T09:20:41.206Z,99.90
2022-09-12T09:23:15.532Z,99.90
2022-09-12T09:26:03.435Z,99.90
2022-09-12T09:28:39.725Z,99.90
2022-09-12T09:31:15.489Z,99.90
2022-09-12T09:33:44.963Z,99.90
2022-09-12T09:36:22.373Z,99.90
2022-09-12T09:39:04.097Z,99.90
2022-09-12T09:44:37.391Z,99.90
2022-09-12T09:47:05.588Z,99.90
2022-09-12T09:49:35.540Z,99.90
2022-09-12T09:52:09.333Z,99.90
2022-09-12T09:54:41.929Z,99.90
2022-09-12T09:57:44.981Z,99.90
2022-09-12T10:00:39.542Z,99.90
2022-09-12T10:03:40.077Z,99.90
2022-09-12T10:06:25.345Z,99.90
2022-09-12T10:09:27.109Z,99.90
2022-09-12T10:11:57.121Z,99.90
2022-09-12T10:14:37.193Z,99.60
2022-09-12T10:17:34.161Z,99.30
2022-09-12T10:20:21.400Z,99.30
2022-09-12T10:22:50.497Z,99.20
2022-09-12T10:25:21.197Z,98.90
2022-09-12T10:27:55.270Z,98.70
2022-09-12T10:30:25.135Z,98.50
2022-09-12T10:32:54.471Z,98.40
2022-09-12T10:35:24.060Z,98.20
2022-09-12T10:37:55.614Z,97.80
2022-09-12T10:40:31.097Z,97.50
2022-09-12T10:43:00.428Z,97.40
2022-09-12T10:45:31.168Z,97.40
2022-09-12T10:48:05.517Z,97.30
2022-09-12T10:50:41.217Z,97.10
2022-09-12T10:53:15.027Z,97.10
2022-09-12T10:56:05.077Z,96.80
2022-09-12T10:59:19.324Z,96.90
2022-09-12T11:01:50.707Z,96.60
2022-09-12T11:07:39.678Z,96.00
2022-09-12T11:10:36.295Z,95.10
2022-09-12T11:13:23.946Z,94.60
2022-09-12T11:16:04.532Z,94.10
2022-09-12T11:18:58.083Z,93.50
2022-09-12T11:21:59.202Z,93.30
2022-09-12T11:24:50.004Z,92.90
2022-09-12T11:27:44.418Z,93.00
2022-09-12T11:30:16.627Z,93.00
2022-09-12T11:33:24.126Z,92.70
2022-09-12T11:36:00.705Z,92.60
2022-09-12T11:39:03.149Z,92.20
2022-09-12T11:41:36.100Z,92.00
2022-09-12T11:44:12.316Z,91.20
2022-09-12T11:46:43.747Z,91.00
2022-09-12T11:49:23.688Z,91.00
2022-09-12T11:51:55.232Z,90.90
2022-09-12T11:54:29.432Z,90.80
2022-09-12T11:57:01.863Z,90.80
2022-09-12T11:59:36.689Z,90.60
2022-09-12T12:02:26.535Z,90.40
2022-09-12T12:05:23.483Z,90.50
2022-09-12T12:08:05.527Z,90.30
2022-09-12T12:10:37.386Z,90.00
2022-09-12T12:13:13.437Z,89.20
2022-09-12T12:15:48.247Z,89.50
2022-09-12T12:18:21.270Z,89.20
2022-09-12T12:20:50.615Z,88.80
2022-09-12T12:23:42.226Z,88.50
2022-09-12T12:26:57.728Z,88.40
2022-09-12T12:29:44.650Z,88.00
2022-09-12T12:32:26.538Z,87.90
2022-09-12T12:35:22.168Z,86.20
2022-09-12T12:37:53.905Z,85.70
2022-09-12T12:40:28.782Z,85.30
2022-09-12T12:43:38.127Z,85.30
2022-09-12T12:46:12.628Z,84.50
2022-09-12T12:49:09.461Z,84.30
2022-09-12T12:52:02.412Z,84.30
2022-09-12T12:54:55.790Z,84.30
2022-09-12T12:57:50.620Z,83.60
2022-09-12T13:00:34.303Z,83.10
2022-09-12T13:03:17.956Z,82.60
2022-09-12T13:06:00.747Z,83.10
2022-09-12T13:08:46.199Z,82.80
2022-09-12T13:11:17.813Z,82.00
2022-09-12T13:13:52.668Z,80.90
2022-09-12T13:16:38.139Z,80.50
2022-09-12T13:19:09.367Z,80.90
2022-09-12T13:21:38.320Z,81.00
2022-09-12T13:24:20.735Z,81.30
2022-09-12T13:26:49.504Z,80.00
2022-09-12T13:29:19.710Z,80.10
2022-09-12T13:31:52.318Z,79.60
2022-09-12T13:34:30.391Z,79.50
2022-09-12T13:37:32.779Z,79.50
2022-09-12T13:40:18.116Z,79.40
2022-09-12T13:42:50.562Z,78.50
2022-09-12T13:45:28.136Z,78.00
2022-09-12T13:48:03.269Z,78.60
2022-09-12T13:50:38.050Z,79.70
2022-09-12T13:53:22.342Z,78.70
2022-09-12T13:56:08.424Z,78.60
2022-09-12T13:58:36.543Z,77.80
2022-09-12T14:01:08.144Z,77.60
2022-09-12T14:07:15.862Z,77.60
2022-09-12T14:09:47.787Z,77.40
2022-09-12T14:12:22.191Z,76.90
2022-09-12T14:15:03.076Z,76.50
2022-09-12T14:17:38.528Z,76.10
2022-09-12T14:20:18.567Z,75.00
2022-09-12T14:22:50.547Z,74.80
2022-09-12T14:25:34.455Z,74.60
2022-09-12T14:28:02.919Z,74.80
2022-09-12T14:30:32.293Z,74.30
2022-09-12T14:33:20.834Z,73.90
2022-09-12T14:36:13.227Z,73.90
2022-09-12T14:38:44.365Z,74.30
2022-09-12T14:41:25.039Z,74.60
2022-09-12T14:43:55.627Z,73.80
2022-09-12T14:46:28.515Z,73.00
2022-09-12T14:49:10.739Z,73.50
2022-09-12T14:51:56.355Z,72.20
2022-09-12T14:58:07.918Z,72.10
2022-09-12T15:00:36.179Z,70.50
2022-09-12T15:03:32.889Z,70.10
2022-09-12T15:06:23.450Z,69.90
2022-09-12T15:08:54.443Z,70.10
2022-09-12T15:11:22.769Z,69.20
2022-09-12T15:13:50.906Z,69.00
2022-09-12T15:16:18.981Z,69.20
2022-09-12T15:18:50.184Z,69.10
2022-09-12T15:21:20.305Z,69.20
2022-09-12T15:23:49.886Z,69.40
2022-09-12T15:26:27.578Z,69.30
2022-09-12T15:29:01.545Z,69.20
2022-09-12T15:31:30.976Z,68.90
2022-09-12T15:34:14.872Z,68.90
2022-09-12T15:36:52.253Z,68.90
2022-09-12T15:39:20.247Z,69.10
2022-09-12T15:41:49.679Z,68.90
2022-09-12T15:44:17.954Z,68.90
2022-09-12T15:46:46.073Z,68.40
2022-09-12T15:49:14.174Z,69.60
2022-09-12T15:51:42.424Z,69.20
2022-09-12T15:54:20.618Z,68.90
2022-09-12T15:56:50.807Z,69.00
2022-09-12T15:59:18.949Z,69.10
2022-09-12T16:01:53.223Z,69.40
2022-09-12T16:04:24.413Z,69.60
2022-09-12T16:06:52.782Z,69.50
2022-09-12T16:09:21.000Z,69.20
2022-09-12T16:11:50.755Z,69.00
2022-09-12T16:14:20.107Z,68.70
2022-09-12T16:16:54.468Z,68.70
2022-09-12T16:19:25.556Z,69.00
2022-09-12T16:21:56.604Z,69.20
2022-09-12T16:24:24.696Z,69.40
2022-09-12T16:27:03.330Z,69.20
2022-09-12T16:29:34.369Z,69.40
2022-09-12T16:32:02.543Z,70.20
2022-09-12T16:34:33.304Z,70.40
2022-09-12T16:37:10.852Z,70.70
2022-09-12T16:39:44.979Z,70.90
2022-09-12T16:42:14.162Z,70.90
2022-09-12T16:44:48.712Z,71.30
2022-09-12T16:47:19.816Z,71.50
2022-09-12T16:49:47.906Z,71.10
2022-09-12T16:52:16.715Z,72.30
2022-09-12T16:54:45.206Z,72.70
2022-09-12T16:57:28.478Z,72.90
2022-09-12T16:59:56.491Z,73.40
2022-09-12T17:02:27.719Z,73.90
2022-09-12T17:04:55.711Z,74.30
2022-09-12T17:07:23.785Z,74.80
2022-09-12T17:09:51.894Z,74.70
2022-09-12T17:12:21.464Z,75.00
2022-09-12T17:17:34.332Z,76.00
2022-09-12T17:20:09.098Z,76.20
2022-09-12T17:22:37.186Z,76.40
2022-09-12T17:25:05.838Z,76.80
2022-09-12T17:27:46.627Z,77.20
2022-09-12T17:30:14.890Z,77.70
2022-09-12T17:32:53.427Z,77.90
2022-09-12T17:35:30.941Z,78.40
2022-09-12T17:38:00.202Z,78.80
2022-09-12T17:40:48.765Z,79.90
2022-09-12T17:43:20.274Z,79.30
2022-09-12T17:46:03.896Z,80.30
2022-09-12T17:48:32.483Z,81.00
2022-09-12T17:51:07.099Z,81.70
2022-09-12T17:53:37.166Z,82.20
2022-09-12T17:56:06.783Z,82.70
2022-09-12T17:58:36.570Z,82.90
2022-09-12T18:01:31.351Z,83.50
2022-09-12T18:04:00.580Z,84.20
2022-09-12T18:09:19.980Z,85.70
2022-09-12T18:11:49.202Z,86.10
2022-09-12T18:14:19.232Z,86.30
2022-09-12T18:16:48.067Z,86.90
2022-09-12T18:19:16.504Z,87.20
2022-09-12T18:21:47.785Z,87.50
2022-09-12T18:24:18.925Z,87.70
2022-09-12T18:26:56.631Z,88.20
2022-09-12T18:29:29.162Z,88.30
2022-09-12T18:31:58.015Z,88.70
2022-09-12T18:34:35.216Z,89.10
2022-09-12T18:37:07.168Z,89.30
2022-09-12T18:39:35.172Z,89.70
2022-09-12T18:42:06.296Z,90.00
2022-09-12T18:44:44.565Z,90.20
2022-09-12T18:47:15.667Z,90.30
2022-09-12T18:49:44.015Z,90.40
2022-09-12T18:52:21.509Z,90.60
2022-09-12T18:54:52.568Z,90.60
2022-09-12T18:57:25.397Z,90.80
2022-09-12T18:59:59.531Z,90.80
2022-09-12T19:02:35.143Z,91.00
2022-09-12T19:05:03.394Z,91.10
2022-09-12T19:07:34.417Z,91.20
2022-09-12T19:10:08.956Z,91.30
2022-09-12T19:12:37.441Z,91.30
2022-09-12T19:15:11.134Z,91.50
2022-09-12T19:17:42.109Z,91.70
2022-09-12T19:20:10.704Z,91.80
2022-09-12T19:22:38.767Z,92.00
2022-09-12T19:25:21.799Z,92.10
2022-09-12T19:27:49.934Z,92.30
2022-09-12T19:30:28.866Z,92.40
2022-09-12T19:32:59.957Z,92.60
2022-09-12T19:35:28.525Z,92.80
2022-09-12T19:38:05.924Z,93.00
2022-09-12T19:40:46.872Z,93.10
2022-09-12T19:43:15.389Z,93.60
2022-09-12T19:46:00.890Z,93.40
2022-09-12T19:48:29.450Z,93.40
2022-09-12T19:51:00.810Z,93.60
2022-09-12T19:56:27.393Z,93.70
2022-09-12T19:59:08.513Z,93.90
2022-09-12T20:04:38.191Z,94.20
2022-09-12T20:07:09.261Z,94.70
2022-09-12T20:09:49.260Z,94.50
2022-09-12T20:12:17.273Z,94.50
2022-09-12T20:14:59.118Z,94.60
2022-09-12T20:17:41.035Z,94.70
2022-09-12T20:20:10.143Z,94.80
2022-09-12T20:22:40.210Z,94.90
2022-09-12T20:25:17.685Z,94.90
2022-09-12T20:27:45.646Z,94.90
2022-09-12T20:30:14.407Z,94.90
2022-09-12T20:32:44.032Z,94.90
2022-09-12T20:35:29.980Z,94.90
2022-09-12T20:38:10.193Z,94.80
2022-09-12T20:40:49.238Z,94.90
2022-09-12T20:43:17.279Z,94.80
2022-09-12T20:45:45.812Z,94.90
2022-09-12T20:48:15.167Z,94.90
2022-09-12T20:50:45.924Z,95.00
2022-09-12T20:53:14.483Z,95.00
2022-09-12T20:56:03.708Z,95.10
2022-09-12T20:58:31.901Z,95.10
2022-09-12T21:01:00.338Z,95.20
2022-09-12T21:03:32.759Z,95.20
2022-09-12T21:06:00.742Z,95.60
2022-09-12T21:08:33.149Z,95.40
2022-09-12T21:11:10.857Z,95.40
2022-09-12T21:13:39.282Z,95.60
2022-09-12T21:16:15.671Z,95.80
2022-09-12T21:18:57.130Z,95.90
2022-09-12T21:21:25.842Z,96.20
2022-09-12T21:24:00.550Z,96.00
2022-09-12T21:26:28.578Z,96.00
2022-09-12T21:28:56.814Z,96.00
2022-09-12T21:31:25.762Z,96.00
2022-09-12T21:33:55.174Z,95.90
2022-09-12T21:36:23.452Z,95.90
2022-09-12T21:38:54.393Z,95.90
2022-09-12T21:41:31.866Z,95.90
2022-09-12T21:44:03.448Z,96.00
2022-09-12T21:46:34.726Z,96.20
2022-09-12T21:49:04.092Z,96.30
2022-09-12T21:51:43.651Z,96.80
2022-09-12T21:54:14.995Z,96.60
2022-09-12T21:56:44.110Z,96.60
2022-09-12T21:59:21.359Z,96.70
2022-09-12T22:01:49.369Z,96.70
2022-09-12T22:04:18.944Z,96.70
2022-09-12T22:06:46.921Z,96.70
2022-09-12T22:09:18.111Z,96.80
2022-09-12T22:11:46.883Z,96.80
2022-09-12T22:14:18.031Z,96.80
2022-09-12T22:16:49.598Z,96.80
2022-09-12T22:19:20.603Z,96.80
2022-09-12T22:22:02.630Z,96.80
2022-09-12T22:24:30.782Z,96.80
2022-09-12T22:27:00.080Z,96.80
2022-09-12T22:29:27.990Z,96.70
2022-09-12T22:32:00.102Z,96.60
2022-09-12T22:34:39.720Z,96.60
2022-09-12T22:37:11.881Z,96.60
2022-09-12T22:39:43.500Z,96.60
2022-09-12T22:42:17.923Z,96.90
2022-09-12T22:44:53.220Z,96.60
2022-09-12T22:47:23.894Z,96.60
2022-09-12T22:49:56.516Z,96.50
2022-09-12T22:52:33.890Z,96.60
2022-09-12T22:55:05.492Z,96.50
2022-09-12T22:57:33.788Z,96.50
2022-09-12T23:02:47.162Z,96.40
2022-09-12T23:05:28.545Z,96.40
2022-09-12T23:07:56.623Z,96.30
2022-09-12T23:10:36.426Z,96.70
2022-09-12T23:13:07.492Z,96.30
2022-09-12T23:15:35.534Z,96.40
2022-09-12T23:18:06.565Z,96.40
2022-09-12T23:20:38.964Z,96.40
2022-09-12T23:23:06.920Z,96.40
2022-09-12T23:25:47.226Z,96.40
2022-09-12T23:28:17.922Z,96.40
2022-09-12T23:30:45.905Z,96.40
2022-09-12T23:33:13.893Z,96.40
2022-09-12T23:35:46.421Z,96.50
2022-09-12T23:38:14.826Z,96.50
2022-09-12T23:40:45.885Z,96.50
2022-09-12T23:43:16.740Z,96.60
2022-09-12T23:45:50.378Z,96.60
2022-09-12T23:48:18.584Z,96.60
2022-09-12T23:50:51.707Z,96.70
2022-09-12T23:53:38.036Z,96.70
2022-09-12T23:56:06.751Z,96.80
2022-09-12T23:58:35.110Z,96.90
